Hesperia, Michigan
Current Conditions -  °F | °C
As of 1:33 AM on Saturday 25 Oct 2014 (Local Time) from KFFX Reporting Station
Haze Haze  
Wind Chill: 47°   Ceiling: 100
Heat Index: 47°   Visibility: 0.75mi
Dew Point: 46°   Wind: 0mph
Humidity: 98%   Direction: NA
Pressure: 29.88"   Gusts: NA
Location:  43.57°N, 86.04°W
Report Text: KFFX 250533Z AUTO 00000KT 3/4SM BR BKN001 OVC075 08/08 A2988 RMK AO2 T00810078
Loading
Personal Weather Stations






























Interactive Weather Map
Tropical Storm Tracking
New forecast layout! Learn more

10-Day Weather Forecast

Advertisements
Track Severe Weather on mobile